createdAt,value
2022-08-26T00:02:20.714Z,75988.56
2022-08-26T00:04:47.975Z,75986.56
2022-08-26T00:07:14.652Z,75998.50
2022-08-26T00:09:41.154Z,76002.47
2022-08-26T00:12:13.686Z,76002.47
2022-08-26T00:14:40.915Z,76012.41
2022-08-26T00:17:08.276Z,76000.47
2022-08-26T00:19:35.292Z,76000.47
2022-08-26T00:22:01.831Z,76012.41
2022-08-26T00:24:28.434Z,76018.38
2022-08-26T00:26:54.999Z,76022.34
2022-08-26T00:29:21.859Z,76026.31
2022-08-26T00:31:49.398Z,76010.41
2022-08-26T00:34:16.815Z,76008.44
2022-08-26T00:36:46.178Z,76002.47
2022-08-26T00:39:12.951Z,75998.50
2022-08-26T00:41:41.003Z,75998.50
2022-08-26T00:44:10.374Z,75992.53
2022-08-26T00:46:47.189Z,75998.50
2022-08-26T00:49:18.168Z,75990.56
2022-08-26T00:51:49.590Z,75978.63
2022-08-26T00:54:19.964Z,75998.50
2022-08-26T00:56:57.651Z,76002.47
2022-08-26T00:59:28.931Z,75990.56
2022-08-26T01:01:59.880Z,75980.63
2022-08-26T01:04:31.485Z,75998.50
2022-08-26T01:06:58.760Z,75998.50
2022-08-26T01:09:25.389Z,76000.47
2022-08-26T01:11:55.783Z,75986.56
2022-08-26T01:14:41.222Z,75982.59
2022-08-26T01:17:51.378Z,75992.53
2022-08-26T01:21:34.906Z,76000.47
2022-08-26T01:24:18.408Z,76000.47
2022-08-26T01:26:45.909Z,75986.56
2022-08-26T01:29:49.005Z,75996.50
2022-08-26T01:32:26.075Z,76006.44
2022-08-26T01:35:10.795Z,76026.31
2022-08-26T01:37:41.785Z,76014.41
2022-08-26T01:40:12.021Z,76010.41
2022-08-26T01:42:41.080Z,76012.41
2022-08-26T01:45:28.159Z,76012.41
2022-08-26T01:48:07.593Z,76016.38
2022-08-26T01:50:37.149Z,76018.38
2022-08-26T01:53:08.535Z,76018.38
2022-08-26T01:55:39.237Z,76024.31
2022-08-26T01:58:13.802Z,76028.31
2022-08-26T02:00:40.480Z,76028.31
2022-08-26T02:03:17.261Z,76050.16
2022-08-26T02:05:57.107Z,76044.19
2022-08-26T02:08:29.664Z,76042.22
2022-08-26T02:10:57.131Z,76046.19
2022-08-26T02:13:28.963Z,76046.19
2022-08-26T02:15:56.427Z,76048.16
2022-08-26T02:18:24.829Z,76050.16
2022-08-26T02:20:53.319Z,76044.19
2022-08-26T02:23:20.566Z,76032.28
2022-08-26T02:25:59.283Z,76012.41
2022-08-26T02:28:31.061Z,75994.53
2022-08-26T02:30:57.572Z,75998.50
2022-08-26T02:33:28.507Z,75994.53
2022-08-26T02:35:55.016Z,75998.50
2022-08-26T02:38:21.587Z,75998.50
2022-08-26T02:40:48.467Z,76002.47
2022-08-26T02:43:15.275Z,76016.38
2022-08-26T02:45:41.898Z,76024.31
2022-08-26T02:48:12.866Z,76028.31
2022-08-26T02:50:40.286Z,76032.28
2022-08-26T02:53:09.938Z,76042.22
2022-08-26T02:55:37.027Z,76042.22
2022-08-26T02:58:04.404Z,76042.22
2022-08-26T03:00:31.592Z,76058.09
2022-08-26T03:02:59.522Z,76058.09
2022-08-26T03:05:26.382Z,76060.09
2022-08-26T03:07:53.061Z,76060.09
2022-08-26T03:10:21.795Z,76052.16
2022-08-26T03:12:48.812Z,76054.13
2022-08-26T03:15:17.794Z,76046.19
2022-08-26T03:17:47.494Z,76044.19
2022-08-26T03:20:15.532Z,76014.41
2022-08-26T03:22:42.327Z,76028.31
2022-08-26T03:25:11.123Z,76030.28
2022-08-26T03:27:37.760Z,76040.22
2022-08-26T03:30:24.107Z,76040.22
2022-08-26T03:32:50.727Z,76030.28
2022-08-26T03:35:18.321Z,76024.31
2022-08-26T03:37:49.103Z,76042.22
2022-08-26T03:40:16.351Z,76040.22
2022-08-26T03:42:47.051Z,76046.19
2022-08-26T03:45:15.435Z,76042.22
2022-08-26T03:47:42.497Z,76034.25
2022-08-26T03:50:12.210Z,76038.22
2022-08-26T03:52:43.504Z,76046.19
2022-08-26T03:55:13.722Z,76042.22
2022-08-26T03:57:40.847Z,76050.16
2022-08-26T04:00:15.002Z,76046.19
2022-08-26T04:02:47.050Z,76044.19
2022-08-26T04:05:15.024Z,76048.16
2022-08-26T04:07:45.398Z,76042.22
2022-08-26T04:10:14.844Z,76034.25
2022-08-26T04:12:45.982Z,76036.25
2022-08-26T04:15:15.198Z,76022.34
2022-08-26T04:17:42.476Z,76032.28
2022-08-26T04:20:10.205Z,76022.34
2022-08-26T04:22:36.764Z,76022.34
2022-08-26T04:25:03.510Z,76026.31
2022-08-26T04:27:33.769Z,76030.28
2022-08-26T04:30:01.134Z,76034.25
2022-08-26T04:32:27.671Z,76038.22
2022-08-26T04:34:54.183Z,76042.22
2022-08-26T04:37:20.706Z,76040.22
2022-08-26T04:39:51.876Z,76036.25
2022-08-26T04:42:23.322Z,76026.31
2022-08-26T04:44:52.775Z,76028.31
2022-08-26T04:47:19.347Z,76032.28
2022-08-26T04:49:45.888Z,76022.34
2022-08-26T04:52:12.659Z,76018.38
2022-08-26T04:54:39.202Z,76026.31
2022-08-26T04:57:08.724Z,76014.41
2022-08-26T04:59:39.191Z,76006.44
2022-08-26T05:02:07.108Z,76002.47
2022-08-26T05:04:34.271Z,75996.50
2022-08-26T05:07:02.198Z,76002.47
2022-08-26T05:09:29.147Z,75986.56
2022-08-26T05:11:57.056Z,75980.63
2022-08-26T05:14:23.647Z,75978.63
2022-08-26T05:16:50.631Z,75966.72
2022-08-26T05:19:18.907Z,75954.78
2022-08-26T05:21:47.126Z,75948.81
2022-08-26T05:24:14.274Z,75934.91
2022-08-26T05:26:40.966Z,75930.94
2022-08-26T05:29:07.791Z,75928.97
2022-08-26T05:31:35.259Z,75917.03
2022-08-26T05:34:04.475Z,75913.06
2022-08-26T05:36:33.587Z,75915.06
2022-08-26T05:39:02.651Z,75883.25
2022-08-26T05:41:36.496Z,75875.31
2022-08-26T05:44:06.015Z,75843.53
2022-08-26T05:46:33.917Z,75819.69
2022-08-26T05:49:01.380Z,75819.69
2022-08-26T05:51:27.961Z,75819.69
2022-08-26T05:53:57.340Z,75815.72
2022-08-26T05:56:26.200Z,75825.66
2022-08-26T05:58:53.499Z,75809.75
2022-08-26T06:01:23.683Z,75789.88
2022-08-26T06:03:53.039Z,75797.84
2022-08-26T06:06:27.212Z,75779.94
2022-08-26T06:08:55.523Z,75772.00
2022-08-26T06:11:26.499Z,75760.09
2022-08-26T06:13:58.925Z,75748.16
2022-08-26T06:16:28.506Z,75748.16
2022-08-26T06:18:55.102Z,75744.19
2022-08-26T06:21:27.976Z,75734.25
2022-08-26T06:24:15.479Z,75726.31
2022-08-26T06:26:46.908Z,75722.34
2022-08-26T06:29:24.123Z,75716.38
2022-08-26T06:31:52.235Z,75714.41
2022-08-26T06:34:18.762Z,75698.50
2022-08-26T06:36:45.701Z,75688.56
2022-08-26T06:39:14.816Z,75670.69
2022-08-26T06:41:43.694Z,75652.81
2022-08-26T06:44:11.884Z,75652.81
2022-08-26T06:46:38.663Z,75636.91
2022-08-26T06:49:05.591Z,75623.00
2022-08-26T06:51:35.136Z,75615.06
2022-08-26T06:54:02.556Z,75617.03
2022-08-26T06:56:34.058Z,75609.09
2022-08-26T06:59:00.615Z,75607.13
2022-08-26T07:01:30.280Z,75601.16
2022-08-26T07:04:00.457Z,75599.16
2022-08-26T07:06:28.273Z,75595.19
2022-08-26T07:09:01.737Z,75575.31
2022-08-26T07:11:30.284Z,75571.34
2022-08-26T07:13:58.964Z,75551.50
2022-08-26T07:16:28.104Z,75529.63
2022-08-26T07:18:56.919Z,75507.78
2022-08-26T07:21:42.180Z,75489.91
2022-08-26T07:24:11.025Z,75476.00
2022-08-26T07:26:38.517Z,75481.97
2022-08-26T07:29:05.343Z,75464.06
2022-08-26T07:31:39.383Z,75446.19
2022-08-26T07:34:09.388Z,75422.34
2022-08-26T07:36:36.622Z,75414.41
2022-08-26T07:39:03.822Z,75390.56
2022-08-26T07:41:31.719Z,75378.66
2022-08-26T07:44:01.169Z,75382.63
2022-08-26T07:46:39.186Z,75386.59
2022-08-26T07:49:06.170Z,75396.53
2022-08-26T07:51:37.200Z,75388.59
2022-08-26T07:54:10.047Z,75390.56
2022-08-26T07:56:50.684Z,75374.69
2022-08-26T07:59:19.320Z,75366.75
2022-08-26T08:01:50.033Z,75372.69
2022-08-26T08:04:19.438Z,75356.81
2022-08-26T08:06:55.471Z,75350.84
2022-08-26T08:09:23.223Z,75332.97
2022-08-26T08:11:51.673Z,75307.16
2022-08-26T08:14:22.158Z,75289.28
2022-08-26T08:16:51.283Z,75273.38
2022-08-26T08:19:21.194Z,75251.53
2022-08-26T08:21:48.456Z,75217.75
2022-08-26T08:24:15.774Z,75203.84
2022-08-26T08:26:42.460Z,75178.03
2022-08-26T08:29:09.318Z,75172.06
2022-08-26T08:34:25.778Z,75164.13
2022-08-26T08:36:53.598Z,75174.06
2022-08-26T08:39:21.946Z,75160.16
2022-08-26T08:42:20.023Z,75146.25
2022-08-26T08:44:52.842Z,75104.53
2022-08-26T08:47:25.300Z,75066.78
2022-08-26T08:49:54.542Z,75088.66
2022-08-26T08:52:35.256Z,75046.94
2022-08-26T08:55:05.708Z,75035.00
2022-08-26T08:58:02.578Z,75031.03
2022-08-26T09:00:39.858Z,75029.06
2022-08-26T09:03:34.607Z,74999.25
2022-08-26T09:06:01.859Z,74993.31
2022-08-26T09:08:35.786Z,75001.25
2022-08-26T09:11:03.614Z,74991.31
2022-08-26T09:13:31.764Z,74985.34
2022-08-26T09:16:18.988Z,74955.56
2022-08-26T09:19:08.761Z,74963.50
2022-08-26T09:21:35.901Z,74935.69
2022-08-26T09:24:02.755Z,74927.75
2022-08-26T09:26:42.175Z,74897.97
2022-08-26T09:29:23.075Z,74876.13
2022-08-26T09:31:51.242Z,74876.13
2022-08-26T09:34:24.340Z,74868.16
2022-08-26T09:36:56.352Z,74864.19
2022-08-26T09:39:30.802Z,74854.25
2022-08-26T09:42:22.480Z,74838.38
2022-08-26T09:44:57.175Z,74842.34
2022-08-26T09:47:38.279Z,74814.53
2022-08-26T09:50:20.495Z,74836.38
2022-08-26T09:52:47.041Z,74826.47
2022-08-26T09:55:23.829Z,74826.47
2022-08-26T09:57:52.984Z,74804.63
2022-08-26T10:00:52.871Z,74796.66
2022-08-26T10:03:33.051Z,74772.84
2022-08-26T10:06:28.312Z,74735.09
2022-08-26T10:09:00.352Z,74715.25
2022-08-26T10:11:43.103Z,74679.47
2022-08-26T10:14:26.378Z,74679.47
2022-08-26T10:17:01.377Z,74691.41
2022-08-26T10:19:56.710Z,74709.28
2022-08-26T10:22:47.479Z,74701.34
2022-08-26T10:25:20.271Z,74733.13
2022-08-26T10:27:59.344Z,74735.09
2022-08-26T10:30:33.589Z,74695.38
2022-08-26T10:33:10.417Z,74679.47
2022-08-26T10:35:54.334Z,74687.44
2022-08-26T10:38:31.506Z,74691.41
2022-08-26T10:41:09.893Z,74701.34
2022-08-26T10:43:48.128Z,74762.91
2022-08-26T10:46:22.450Z,74776.81
2022-08-26T10:49:08.471Z,74778.78
2022-08-26T10:51:42.224Z,74770.84
2022-08-26T10:54:28.887Z,74766.88
2022-08-26T10:57:11.429Z,74739.06
2022-08-26T10:59:53.114Z,74711.25
2022-08-26T11:02:36.090Z,74719.22
2022-08-26T11:05:06.398Z,74735.09
2022-08-26T11:07:35.524Z,74693.38
2022-08-26T11:10:20.442Z,74683.47
2022-08-26T11:12:53.481Z,74645.72
2022-08-26T11:15:24.587Z,74641.75
2022-08-26T11:18:00.099Z,74600.03
2022-08-26T11:20:29.893Z,74574.22
2022-08-26T11:23:28.178Z,74544.44
2022-08-26T11:26:10.192Z,74540.47
2022-08-26T11:28:39.915Z,74528.56
2022-08-26T11:31:26.172Z,74538.47
2022-08-26T11:34:13.898Z,74560.31
2022-08-26T11:36:45.470Z,74613.94
2022-08-26T11:39:47.308Z,74623.88
2022-08-26T11:42:32.533Z,74665.59
2022-08-26T11:45:01.364Z,74683.47
2022-08-26T11:47:32.040Z,74685.44
2022-08-26T11:50:09.500Z,74689.41
2022-08-26T11:52:36.928Z,74707.28
2022-08-26T11:55:08.163Z,74776.81
2022-08-26T11:57:43.452Z,74814.53
2022-08-26T12:00:20.968Z,74858.25
2022-08-26T12:02:50.134Z,74882.06
2022-08-26T12:05:25.741Z,74892.00
2022-08-26T12:07:57.087Z,74937.69
2022-08-26T12:10:31.048Z,74977.41
2022-08-26T12:13:00.023Z,74987.34
2022-08-26T12:15:29.582Z,74983.38
2022-08-26T12:17:56.755Z,74993.31
2022-08-26T12:20:48.596Z,74997.28
2022-08-26T12:23:23.817Z,75035.00
2022-08-26T12:25:52.655Z,75088.66
2022-08-26T12:28:21.515Z,75112.47
2022-08-26T12:31:04.471Z,75118.44
2022-08-26T12:33:35.995Z,75122.41
2022-08-26T12:36:05.186Z,75144.25
2022-08-26T12:38:34.326Z,75126.38
2022-08-26T12:41:00.930Z,75122.41
2022-08-26T12:43:45.931Z,75120.44
2022-08-26T12:46:17.403Z,75130.34
2022-08-26T12:48:49.320Z,75140.28
2022-08-26T12:51:24.249Z,75164.13
2022-08-26T12:53:51.827Z,75156.19
2022-08-26T12:56:38.839Z,75166.09
2022-08-26T12:59:25.622Z,75191.94
2022-08-26T13:01:53.722Z,75199.88
2022-08-26T13:04:43.447Z,75191.94
2022-08-26T13:07:28.233Z,75193.91
2022-08-26T13:09:57.631Z,75189.94
2022-08-26T13:12:33.507Z,75182.00
2022-08-26T13:15:02.682Z,75205.84
2022-08-26T13:17:31.112Z,75213.78
2022-08-26T13:20:03.581Z,75259.47
2022-08-26T13:22:34.210Z,75289.28
2022-08-26T13:25:00.838Z,75307.16
2022-08-26T13:27:27.630Z,75327.00
2022-08-26T13:29:54.846Z,75317.06
2022-08-26T13:32:27.467Z,75334.97
2022-08-26T13:34:56.320Z,75330.97
2022-08-26T13:37:24.523Z,75327.00
2022-08-26T13:40:01.627Z,75362.75
2022-08-26T13:42:28.362Z,75354.81
2022-08-26T13:44:58.100Z,75376.69
2022-08-26T13:47:26.106Z,75384.63
2022-08-26T13:49:54.772Z,75384.63
2022-08-26T13:52:27.265Z,75410.44
2022-08-26T13:54:57.172Z,75436.28
2022-08-26T13:57:24.798Z,75450.16
2022-08-26T13:59:53.993Z,75468.06
2022-08-26T14:02:20.587Z,75493.88
2022-08-26T14:04:47.127Z,75501.81
2022-08-26T14:07:13.743Z,75517.72
2022-08-26T14:09:40.453Z,75527.66
2022-08-26T14:12:07.151Z,75537.59
2022-08-26T14:14:33.819Z,75523.69
2022-08-26T14:17:01.221Z,75529.63
2022-08-26T14:19:30.103Z,75543.53
2022-08-26T14:21:56.847Z,75537.59
2022-08-26T14:24:23.756Z,75549.50
2022-08-26T14:26:52.862Z,75537.59
2022-08-26T14:29:19.522Z,75551.50
2022-08-26T14:31:46.196Z,75569.38
2022-08-26T14:34:14.219Z,75565.41
2022-08-26T14:36:40.847Z,75591.22
2022-08-26T14:39:10.733Z,75597.19
2022-08-26T14:41:45.368Z,75589.22
2022-08-26T14:44:21.979Z,75603.13
2022-08-26T14:46:50.676Z,75605.13
2022-08-26T14:49:18.931Z,75611.09
2022-08-26T14:51:45.756Z,75626.97
2022-08-26T14:54:13.605Z,75652.81
2022-08-26T14:56:53.907Z,75666.72
2022-08-26T14:59:25.511Z,75680.63
2022-08-26T15:01:53.194Z,75698.50
2022-08-26T15:04:20.254Z,75726.31
2022-08-26T15:06:47.446Z,75732.28
2022-08-26T15:09:14.575Z,75732.28
2022-08-26T15:11:41.390Z,75764.06
2022-08-26T15:14:08.907Z,75775.97
2022-08-26T15:16:50.499Z,75779.94
2022-08-26T15:19:18.106Z,75768.03
2022-08-26T15:21:45.712Z,75777.97
2022-08-26T15:24:13.031Z,75787.91
2022-08-26T15:26:40.327Z,75795.84
2022-08-26T15:29:07.703Z,75795.84
2022-08-26T15:31:34.715Z,75785.91
2022-08-26T15:34:05.851Z,75779.94
2022-08-26T15:36:33.297Z,75787.91
2022-08-26T15:39:01.011Z,75789.88
2022-08-26T15:41:28.454Z,75783.94
2022-08-26T15:43:55.081Z,75783.94
2022-08-26T15:46:21.747Z,75758.09
2022-08-26T15:48:48.413Z,75772.00
2022-08-26T15:51:27.587Z,75756.13
2022-08-26T15:53:56.350Z,75768.03
2022-08-26T15:56:28.274Z,75766.03
2022-08-26T15:58:56.274Z,75772.00
2022-08-26T16:01:28.070Z,75768.03
2022-08-26T16:03:58.422Z,75744.19
2022-08-26T16:06:28.673Z,75760.09
2022-08-26T16:08:56.239Z,75752.13
2022-08-26T16:11:23.443Z,75754.13
2022-08-26T16:13:50.663Z,75762.06
2022-08-26T16:16:18.142Z,75746.19
2022-08-26T16:18:45.343Z,75734.25
2022-08-26T16:21:20.594Z,75732.28
2022-08-26T16:23:49.919Z,75746.19
2022-08-26T16:26:21.742Z,75750.16
2022-08-26T16:28:48.670Z,75752.13
2022-08-26T16:31:17.957Z,75746.19
2022-08-26T16:33:46.299Z,75752.13
2022-08-26T16:36:16.683Z,75758.09
2022-08-26T16:38:50.111Z,75768.03
2022-08-26T16:41:20.522Z,75775.97
2022-08-26T16:43:47.267Z,75783.94
2022-08-26T16:46:16.177Z,75785.91
2022-08-26T16:48:44.011Z,75779.94
2022-08-26T16:51:16.237Z,75770.03
2022-08-26T16:53:44.247Z,75748.16
2022-08-26T16:56:16.685Z,75750.16
2022-08-26T16:58:44.310Z,75762.06
2022-08-26T17:01:11.492Z,75762.06
2022-08-26T17:03:38.166Z,75756.13
2022-08-26T17:06:05.017Z,75752.13
2022-08-26T17:08:31.616Z,75752.13
2022-08-26T17:11:01.358Z,75750.16
2022-08-26T17:13:34.772Z,75734.25
2022-08-26T17:16:02.841Z,75740.22
2022-08-26T17:18:31.551Z,75740.22
2022-08-26T17:21:02.434Z,75746.19
2022-08-26T17:23:29.240Z,75760.09
2022-08-26T17:25:55.833Z,75750.16
2022-08-26T17:28:22.509Z,75738.22
2022-08-26T17:30:49.062Z,75734.25
2022-08-26T17:33:17.141Z,75730.28
2022-08-26T17:35:48.563Z,75722.34
2022-08-26T17:38:15.115Z,75722.34
2022-08-26T17:40:41.727Z,75716.38
2022-08-26T17:43:12.195Z,75706.44
2022-08-26T17:45:40.524Z,75700.47
2022-08-26T17:48:08.018Z,75710.41
2022-08-26T17:50:35.002Z,75724.31
2022-08-26T17:53:01.530Z,75730.28
2022-08-26T17:55:28.310Z,75738.22
2022-08-26T17:57:54.787Z,75740.22
2022-08-26T18:00:28.208Z,75740.22
2022-08-26T18:02:55.696Z,75738.22
2022-08-26T18:05:23.931Z,75740.22
2022-08-26T18:07:51.500Z,75738.22
2022-08-26T18:10:19.366Z,75744.19
2022-08-26T18:23:52.216Z,75728.31
2022-08-26T18:26:26.553Z,75724.31
2022-08-26T18:28:53.858Z,75732.28
2022-08-26T18:31:21.087Z,75724.31
2022-08-26T18:33:47.820Z,75724.31
2022-08-26T18:36:20.540Z,75728.31
2022-08-26T18:38:50.430Z,75722.34
2022-08-26T18:41:20.758Z,75726.31
2022-08-26T18:43:50.395Z,75726.31
2022-08-26T18:46:18.073Z,75726.31
2022-08-26T18:48:44.852Z,75734.25
2022-08-26T18:51:23.738Z,75740.22
2022-08-26T18:53:50.535Z,75748.16
2022-08-26T18:56:18.686Z,75752.13
2022-08-26T18:58:45.846Z,75752.13
2022-08-26T19:01:13.284Z,75760.09
2022-08-26T19:03:40.062Z,75770.03
2022-08-26T19:06:06.851Z,75779.94
2022-08-26T19:08:33.327Z,75785.91
2022-08-26T19:11:00.347Z,75779.94
2022-08-26T19:13:26.939Z,75781.94
2022-08-26T19:15:53.437Z,75768.03
2022-08-26T19:18:20.132Z,75752.13
2022-08-26T19:20:47.941Z,75764.06
2022-08-26T19:23:33.113Z,75758.09
2022-08-26T19:26:03.553Z,75760.09
2022-08-26T19:28:30.112Z,75770.03
2022-08-26T19:30:56.627Z,75770.03
2022-08-26T19:33:23.218Z,75774.00
2022-08-26T19:35:49.970Z,75754.13
2022-08-26T19:38:16.556Z,75752.13
2022-08-26T19:40:43.588Z,75748.16
2022-08-26T19:43:11.381Z,75764.06
2022-08-26T19:45:38.943Z,75779.94
2022-08-26T19:48:05.764Z,75783.94
2022-08-26T19:50:34.568Z,75754.13
2022-08-26T19:53:01.563Z,75772.00
2022-08-26T19:55:28.253Z,75768.03
2022-08-26T19:57:54.932Z,75772.00
2022-08-26T20:00:26.761Z,75768.03
2022-08-26T20:02:54.123Z,75772.00
2022-08-26T20:05:22.527Z,75783.94
2022-08-26T20:07:50.415Z,75795.84
2022-08-26T20:10:21.080Z,75813.72
2022-08-26T20:12:50.629Z,75807.75
2022-08-26T20:15:17.858Z,75803.78
2022-08-26T20:17:44.700Z,75797.84
2022-08-26T20:20:33.751Z,75803.78
2022-08-26T20:23:03.701Z,75801.81
2022-08-26T20:25:32.581Z,75799.81
2022-08-26T20:27:59.814Z,75795.84
2022-08-26T20:30:26.770Z,75787.91
2022-08-26T20:32:53.362Z,75797.84
2022-08-26T20:35:23.132Z,75807.75
2022-08-26T20:37:49.753Z,75821.69
2022-08-26T20:40:17.025Z,75827.63
2022-08-26T20:42:43.654Z,75827.63
2022-08-26T20:45:11.109Z,75825.66
2022-08-26T20:47:38.136Z,75831.59
2022-08-26T20:50:05.247Z,75817.69
2022-08-26T20:52:31.863Z,75815.72
2022-08-26T20:55:01.427Z,75819.69
2022-08-26T20:57:28.106Z,75807.75
2022-08-26T20:59:55.372Z,75805.78
2022-08-26T21:02:21.904Z,75801.81
2022-08-26T21:04:48.756Z,75813.72
2022-08-26T21:07:15.377Z,75807.75
2022-08-26T21:09:47.200Z,75809.75
2022-08-26T21:12:13.984Z,75817.69
2022-08-26T21:14:40.741Z,75827.63
2022-08-26T21:17:07.427Z,75837.56
2022-08-26T21:19:34.115Z,75837.56
2022-08-26T21:22:00.717Z,75831.59
2022-08-26T21:24:27.567Z,75831.59
2022-08-26T21:26:54.159Z,75831.59
2022-08-26T21:29:22.080Z,75819.69
2022-08-26T21:31:50.038Z,75845.50
2022-08-26T21:34:20.454Z,75859.41
2022-08-26T21:36:50.204Z,75849.50
2022-08-26T21:39:21.035Z,75837.56
2022-08-26T21:41:47.642Z,75839.56
2022-08-26T21:44:15.941Z,75823.66
2022-08-26T21:46:53.761Z,75815.72
2022-08-26T21:49:20.478Z,75809.75
2022-08-26T21:51:48.567Z,75797.84
2022-08-26T21:54:15.751Z,75809.75
2022-08-26T21:56:46.739Z,75819.69
2022-08-26T21:59:16.002Z,75829.63
2022-08-26T22:01:42.684Z,75799.81
2022-08-26T22:04:10.218Z,75813.72
2022-08-26T22:06:43.770Z,75825.66
2022-08-26T22:09:11.739Z,75823.66
2022-08-26T22:11:38.524Z,75831.59
2022-08-26T22:14:05.185Z,75839.56
2022-08-26T22:16:31.827Z,75831.59
2022-08-26T22:18:58.619Z,75823.66
2022-08-26T22:21:28.434Z,75837.56
2022-08-26T22:23:58.174Z,75833.59
2022-08-26T22:26:27.337Z,75823.66
2022-08-26T22:28:59.091Z,75825.66
2022-08-26T22:31:36.977Z,75827.63
2022-08-26T22:34:07.938Z,75817.69
2022-08-26T22:36:35.112Z,75825.66
2022-08-26T22:39:01.771Z,75823.66
2022-08-26T22:41:28.427Z,75819.69
2022-08-26T22:44:01.699Z,75823.66
2022-08-26T22:46:29.251Z,75827.63
2022-08-26T22:48:56.918Z,75829.63
2022-08-26T22:51:28.299Z,75829.63
2022-08-26T22:53:54.863Z,75829.63
2022-08-26T22:56:22.191Z,75827.63
2022-08-26T22:58:49.257Z,75827.63
2022-08-26T23:01:17.063Z,75833.59
2022-08-26T23:03:44.313Z,75833.59
2022-08-26T23:06:10.978Z,75815.72
2022-08-26T23:08:39.265Z,75815.72
2022-08-26T23:11:11.142Z,75823.66
2022-08-26T23:13:38.527Z,75827.63
2022-08-26T23:16:09.308Z,75835.59
2022-08-26T23:18:36.831Z,75835.59
2022-08-26T23:21:03.508Z,75827.63
2022-08-26T23:23:31.220Z,75851.47
2022-08-26T23:25:58.456Z,75869.34
2022-08-26T23:28:25.833Z,75855.44
2022-08-26T23:30:53.694Z,75861.41
2022-08-26T23:33:20.733Z,75861.41
2022-08-26T23:35:47.275Z,75857.44
2022-08-26T23:38:15.178Z,75855.44
2022-08-26T23:40:42.045Z,75853.47
2022-08-26T23:43:11.619Z,75849.50
2022-08-26T23:45:38.440Z,75853.47
2022-08-26T23:48:05.556Z,75857.44
2022-08-26T23:50:50.838Z,75863.41
2022-08-26T23:53:20.867Z,75875.31
2022-08-26T23:55:50.144Z,75887.22
2022-08-26T23:58:18.246Z,75891.22
